createdAt,value
2019-06-26T00:02:28.838Z,7.53
2019-06-26T00:04:59.339Z,7.57
2019-06-26T00:07:29.891Z,7.40
2019-06-26T00:10:00.328Z,8.03
2019-06-26T00:12:30.742Z,7.80
2019-06-26T00:15:01.107Z,7.60
2019-06-26T00:17:31.496Z,7.37
2019-06-26T00:20:01.920Z,7.90
2019-06-26T00:22:32.723Z,7.70
2019-06-26T00:25:03.134Z,7.57
2019-06-26T00:27:33.518Z,7.83
2019-06-26T00:30:04.399Z,7.93
2019-06-26T00:32:34.813Z,8.13
2019-06-26T00:35:06.153Z,8.00
2019-06-26T00:37:36.557Z,8.00
2019-06-26T00:40:08.257Z,8.70
2019-06-26T00:42:38.663Z,8.30
2019-06-26T00:45:09.567Z,7.87
2019-06-26T00:47:39.958Z,7.27
2019-06-26T00:50:11.274Z,8.30
2019-06-26T00:52:41.734Z,7.40
2019-06-26T00:55:13.261Z,7.03
2019-06-26T00:57:43.681Z,7.70
2019-06-26T01:00:15.998Z,7.83
2019-06-26T01:02:46.413Z,7.50
2019-06-26T01:05:16.907Z,8.33
2019-06-26T01:07:47.265Z,8.30
2019-06-26T01:10:18.514Z,9.07
2019-06-26T01:12:48.899Z,8.10
2019-06-26T01:15:19.321Z,7.57
2019-06-26T01:17:49.663Z,8.27
2019-06-26T01:20:20.120Z,8.97
2019-06-26T01:22:50.448Z,8.23
2019-06-26T01:25:20.880Z,8.57
2019-06-26T01:27:51.260Z,7.23
2019-06-26T01:30:22.483Z,8.10
2019-06-26T01:32:52.847Z,8.07
2019-06-26T01:35:23.286Z,8.30
2019-06-26T01:37:53.790Z,7.83
2019-06-26T01:40:25.358Z,7.83
2019-06-26T01:42:55.797Z,7.50
2019-06-26T01:45:26.210Z,7.57
2019-06-26T01:47:56.610Z,7.53
2019-06-26T01:50:27.016Z,7.40
2019-06-26T01:52:57.392Z,7.40
2019-06-26T01:55:27.880Z,7.80
2019-06-26T01:57:58.271Z,7.63
2019-06-26T02:00:28.708Z,7.70
2019-06-26T02:02:59.062Z,7.43
2019-06-26T02:05:29.461Z,7.13
2019-06-26T02:07:59.881Z,7.30
2019-06-26T02:10:30.296Z,7.50
2019-06-26T02:13:00.690Z,7.53
2019-06-26T02:15:31.082Z,8.03
2019-06-26T02:18:01.476Z,7.67
2019-06-26T02:20:31.874Z,7.87
2019-06-26T02:23:02.255Z,7.87
2019-06-26T02:25:32.661Z,8.13
2019-06-26T02:28:03.237Z,8.80
2019-06-26T02:30:33.812Z,8.03
2019-06-26T02:33:04.210Z,8.43
2019-06-26T02:35:34.640Z,8.83
2019-06-26T02:38:05.084Z,9.40
2019-06-26T02:40:35.475Z,9.70
2019-06-26T02:43:07.214Z,9.70
2019-06-26T02:45:38.275Z,8.60
2019-06-26T02:48:08.667Z,7.17
2019-06-26T02:50:39.059Z,6.63
2019-06-26T02:53:09.467Z,7.50
2019-06-26T02:55:39.795Z,7.57
2019-06-26T02:58:10.190Z,7.67
2019-06-26T03:00:40.620Z,7.60
2019-06-26T03:03:10.979Z,6.97
2019-06-26T03:05:41.378Z,7.43
2019-06-26T03:08:11.768Z,7.20
2019-06-26T03:10:42.156Z,7.60
2019-06-26T03:13:12.577Z,8.00
2019-06-26T03:15:42.943Z,8.00
2019-06-26T03:18:13.436Z,7.90
2019-06-26T03:20:48.981Z,7.90
2019-06-26T03:23:19.425Z,8.50
2019-06-26T03:25:49.847Z,8.17
2019-06-26T03:28:20.284Z,7.40
2019-06-26T03:30:50.780Z,7.80
2019-06-26T03:33:21.515Z,7.50
2019-06-26T03:35:52.011Z,7.23
2019-06-26T03:38:22.452Z,8.47
2019-06-26T03:40:52.889Z,8.50
2019-06-26T03:43:23.283Z,8.17
2019-06-26T03:45:53.692Z,7.87
2019-06-26T03:48:24.095Z,7.77
2019-06-26T03:50:54.471Z,7.77
2019-06-26T03:53:24.863Z,7.50
2019-06-26T03:55:55.242Z,7.30
2019-06-26T03:58:25.712Z,7.70
2019-06-26T04:00:56.166Z,7.73
2019-06-26T04:03:26.636Z,7.77
2019-06-26T04:05:57.001Z,7.67
2019-06-26T04:08:27.418Z,7.47
2019-06-26T04:10:57.814Z,7.60
2019-06-26T04:13:28.251Z,7.33
2019-06-26T04:15:58.664Z,8.00
2019-06-26T04:18:29.090Z,7.63
2019-06-26T04:20:59.497Z,7.43
2019-06-26T04:23:29.893Z,8.13
2019-06-26T04:26:00.301Z,8.87
2019-06-26T04:28:30.717Z,8.80
2019-06-26T04:31:01.148Z,8.53
2019-06-26T04:33:31.544Z,9.20
2019-06-26T04:36:02.174Z,8.60
2019-06-26T04:38:32.570Z,8.87
2019-06-26T04:41:02.995Z,9.57
2019-06-26T04:43:33.425Z,10.00
2019-06-26T04:46:03.845Z,9.67
2019-06-26T04:48:34.213Z,9.57
2019-06-26T04:51:04.666Z,10.13
2019-06-26T04:53:35.034Z,10.70
2019-06-26T04:56:05.463Z,11.50
2019-06-26T04:58:35.855Z,13.10
2019-06-26T05:01:06.302Z,13.50
2019-06-26T05:03:36.686Z,14.93
2019-06-26T05:06:07.158Z,16.90
2019-06-26T05:08:37.612Z,20.67
2019-06-26T05:11:08.026Z,21.23
2019-06-26T05:13:38.439Z,21.93
2019-06-26T05:16:14.780Z,24.10
2019-06-26T05:18:40.966Z,23.77
2019-06-26T05:21:11.454Z,23.77
2019-06-26T05:23:41.832Z,22.83
2019-06-26T05:26:12.396Z,12.57
2019-06-26T05:28:42.778Z,9.57
2019-06-26T05:31:13.186Z,7.47
2019-06-26T05:33:43.642Z,7.90
2019-06-26T05:36:14.041Z,7.37
2019-06-26T05:38:44.561Z,6.30
2019-06-26T05:41:15.024Z,5.73
2019-06-26T05:43:45.450Z,6.27
2019-06-26T05:46:29.967Z,5.23
2019-06-26T05:48:48.015Z,5.03
2019-06-26T05:51:18.440Z,4.57
2019-06-26T05:53:48.844Z,4.70
2019-06-26T05:56:19.225Z,5.07
2019-06-26T05:58:49.650Z,4.97
2019-06-26T06:01:20.053Z,5.13
2019-06-26T06:03:50.474Z,5.27
2019-06-26T06:06:22.975Z,4.70
2019-06-26T06:08:53.368Z,5.47
2019-06-26T06:11:23.785Z,4.83
2019-06-26T06:13:54.213Z,5.00
2019-06-26T06:16:24.618Z,5.10
2019-06-26T06:18:55.333Z,5.10
2019-06-26T06:21:27.779Z,4.60
2019-06-26T06:23:58.428Z,4.30
2019-06-26T06:26:28.809Z,4.13
2019-06-26T06:28:59.225Z,3.90
2019-06-26T06:31:29.634Z,4.17
2019-06-26T06:34:00.045Z,4.70
2019-06-26T06:36:30.417Z,4.40
2019-06-26T06:39:00.856Z,4.30
2019-06-26T06:41:31.254Z,4.20
2019-06-26T06:44:01.670Z,4.13
2019-06-26T06:46:32.064Z,3.87
2019-06-26T06:49:02.497Z,4.30
2019-06-26T06:51:32.915Z,4.37
2019-06-26T06:54:03.426Z,4.40
2019-06-26T06:56:33.851Z,4.00
2019-06-26T06:59:04.305Z,4.17
2019-06-26T07:01:34.702Z,4.53
2019-06-26T07:04:05.168Z,4.20
2019-06-26T07:06:35.584Z,4.33
2019-06-26T07:09:07.851Z,4.40
2019-06-26T07:11:38.235Z,4.17
2019-06-26T07:14:08.631Z,4.40
2019-06-26T07:16:39.057Z,4.60
2019-06-26T07:19:09.493Z,5.07
2019-06-26T07:21:39.922Z,4.50
2019-06-26T07:24:10.368Z,5.07
2019-06-26T07:26:40.811Z,3.97
2019-06-26T07:29:11.174Z,4.57
2019-06-26T07:31:41.654Z,4.37
2019-06-26T07:34:12.110Z,4.60
2019-06-26T07:36:42.520Z,4.80
2019-06-26T07:39:13.421Z,4.47
2019-06-26T07:41:43.862Z,6.33
2019-06-26T07:44:14.331Z,6.27
2019-06-26T07:46:44.742Z,6.53
2019-06-26T07:49:15.143Z,10.13
2019-06-26T07:51:45.541Z,6.10
2019-06-26T07:54:16.329Z,4.63
2019-06-26T07:56:46.778Z,4.40
2019-06-26T07:59:17.158Z,4.70
2019-06-26T08:01:47.553Z,4.67
2019-06-26T08:04:17.987Z,4.43
2019-06-26T08:06:48.370Z,4.50
2019-06-26T08:09:18.775Z,4.50
2019-06-26T08:11:49.342Z,4.80
2019-06-26T08:14:19.782Z,4.20
2019-06-26T08:16:50.182Z,4.43
2019-06-26T08:19:20.613Z,4.37
2019-06-26T08:21:51.000Z,4.40
2019-06-26T08:24:21.427Z,4.27
2019-06-26T08:26:51.847Z,4.40
2019-06-26T08:29:22.213Z,4.37
2019-06-26T08:31:52.619Z,4.10
2019-06-26T08:34:23.037Z,4.20
2019-06-26T08:36:53.465Z,4.13
2019-06-26T08:39:23.867Z,4.60
2019-06-26T08:41:54.258Z,4.30
2019-06-26T08:44:24.654Z,4.70
2019-06-26T08:46:55.162Z,4.93
2019-06-26T08:49:26.669Z,4.57
2019-06-26T08:51:58.399Z,4.30
2019-06-26T08:54:28.870Z,4.30
2019-06-26T08:56:59.269Z,4.47
2019-06-26T08:59:29.723Z,4.13
2019-06-26T09:02:00.279Z,4.80
2019-06-26T09:04:31.277Z,4.30
2019-06-26T09:07:02.899Z,5.20
2019-06-26T09:09:33.352Z,4.03
2019-06-26T09:12:03.847Z,4.30
2019-06-26T09:14:34.276Z,4.20
2019-06-26T09:17:04.668Z,4.60
2019-06-26T09:19:35.121Z,4.30
2019-06-26T09:22:07.228Z,4.93
2019-06-26T09:24:37.673Z,4.27
2019-06-26T09:27:08.106Z,4.60
2019-06-26T09:29:38.532Z,4.40
2019-06-26T09:32:08.960Z,4.93
2019-06-26T09:34:39.490Z,4.63
2019-06-26T09:37:09.966Z,4.90
2019-06-26T09:39:40.471Z,4.60
2019-06-26T09:42:10.876Z,4.40
2019-06-26T09:44:41.315Z,4.60
2019-06-26T09:47:15.475Z,4.93
2019-06-26T09:49:43.830Z,5.07
2019-06-26T09:52:14.362Z,4.90
2019-06-26T09:54:44.774Z,4.87
2019-06-26T09:57:15.231Z,4.40
2019-06-26T09:59:45.656Z,5.13
2019-06-26T10:02:16.064Z,4.73
2019-06-26T10:04:46.484Z,4.63
2019-06-26T10:07:16.937Z,5.00
2019-06-26T10:09:47.337Z,4.87
2019-06-26T10:12:17.751Z,5.07
2019-06-26T10:14:48.317Z,4.97
2019-06-26T10:17:18.721Z,4.73
2019-06-26T10:19:49.121Z,4.80
2019-06-26T10:22:19.518Z,4.50
2019-06-26T10:24:50.016Z,5.03
2019-06-26T10:27:20.375Z,4.90
2019-06-26T10:29:50.815Z,4.90
2019-06-26T10:32:21.260Z,4.37
2019-06-26T10:34:51.705Z,4.30
2019-06-26T10:37:22.079Z,4.07
2019-06-26T10:39:52.501Z,5.27
2019-06-26T10:42:22.887Z,4.97
2019-06-26T10:44:53.279Z,4.20
2019-06-26T10:47:23.726Z,4.43
2019-06-26T10:49:54.175Z,4.73
2019-06-26T10:52:24.558Z,4.60
2019-06-26T10:54:55.004Z,4.53
2019-06-26T10:57:25.411Z,4.77
2019-06-26T10:59:56.179Z,4.93
2019-06-26T11:02:26.767Z,4.33
2019-06-26T11:04:57.211Z,4.37
2019-06-26T11:07:27.615Z,4.47
2019-06-26T11:09:58.167Z,4.63
2019-06-26T11:12:28.587Z,4.40
2019-06-26T11:14:59.449Z,4.37
2019-06-26T11:17:29.866Z,4.07
2019-06-26T11:20:00.541Z,3.53
2019-06-26T11:22:30.979Z,3.67
2019-06-26T11:25:01.431Z,4.37
2019-06-26T11:27:33.739Z,3.60
2019-06-26T11:30:05.401Z,3.30
2019-06-26T11:32:35.783Z,3.40
2019-06-26T11:35:06.966Z,3.40
2019-06-26T11:37:37.550Z,4.00
2019-06-26T11:40:10.261Z,3.70
2019-06-26T11:42:40.683Z,4.03
2019-06-26T11:45:13.987Z,4.20
2019-06-26T11:47:45.930Z,4.03
2019-06-26T11:50:17.405Z,3.90
2019-06-26T11:52:47.767Z,4.53
2019-06-26T11:55:19.895Z,4.50
2019-06-26T11:57:50.418Z,3.92
2019-06-26T12:00:24.036Z,8.05
2019-06-26T12:02:54.447Z,3.80
2019-06-26T12:05:24.899Z,4.20
2019-06-26T12:07:55.364Z,3.77
2019-06-26T12:10:25.809Z,3.87
2019-06-26T12:12:56.239Z,3.87
2019-06-26T12:15:26.841Z,3.67
2019-06-26T12:17:57.220Z,3.50
2019-06-26T12:20:27.651Z,3.90
2019-06-26T12:22:58.073Z,3.55
2019-06-26T12:25:28.507Z,3.40
2019-06-26T12:27:58.916Z,3.67
2019-06-26T12:30:30.460Z,3.65
2019-06-26T12:33:03.482Z,3.55
2019-06-26T12:35:33.152Z,3.30
2019-06-26T12:38:03.663Z,3.47
2019-06-26T12:40:34.114Z,3.67
2019-06-26T12:43:04.539Z,3.50
2019-06-26T12:45:34.967Z,3.15
2019-06-26T12:48:05.622Z,3.40
2019-06-26T12:50:36.327Z,3.75
2019-06-26T12:53:06.927Z,3.65
2019-06-26T12:55:37.441Z,3.83
2019-06-26T12:58:14.797Z,3.10
2019-06-26T13:00:40.059Z,3.50
2019-06-26T13:03:10.443Z,3.35
2019-06-26T13:05:40.931Z,3.77
2019-06-26T13:08:11.441Z,3.83
2019-06-26T13:10:49.640Z,3.98
2019-06-26T13:13:14.764Z,3.55
2019-06-26T13:15:45.248Z,4.35
2019-06-26T13:18:15.737Z,3.45
2019-06-26T13:20:52.790Z,3.45
2019-06-26T13:23:19.311Z,3.90
2019-06-26T13:25:49.690Z,3.37
2019-06-26T13:28:20.124Z,3.67
2019-06-26T13:30:53.229Z,3.30
2019-06-26T13:33:22.700Z,3.30
2019-06-26T13:35:53.119Z,4.03
2019-06-26T13:38:26.978Z,2.90
2019-06-26T13:40:55.679Z,3.62
2019-06-26T13:43:26.102Z,3.50
2019-06-26T13:45:58.717Z,3.20
2019-06-26T13:48:28.647Z,3.50
2019-06-26T13:51:08.935Z,3.72
2019-06-26T13:53:31.244Z,3.08
2019-06-26T13:56:01.750Z,3.87
2019-06-26T13:58:32.154Z,2.92
2019-06-26T14:01:02.614Z,3.33
2019-06-26T14:03:33.020Z,3.58
2019-06-26T14:06:03.469Z,3.87
2019-06-26T14:08:33.835Z,3.87
2019-06-26T14:11:07.288Z,3.17
2019-06-26T14:13:36.353Z,3.27
2019-06-26T14:16:06.775Z,3.60
2019-06-26T14:18:37.177Z,3.40
2019-06-26T14:21:07.581Z,3.62
2019-06-26T14:23:38.131Z,3.77
2019-06-26T14:26:08.523Z,3.55
2019-06-26T14:28:39.073Z,3.22
2019-06-26T14:31:09.472Z,3.20
2019-06-26T14:33:39.867Z,3.17
2019-06-26T14:36:10.215Z,3.50
2019-06-26T14:38:40.625Z,3.40
2019-06-26T14:41:11.065Z,3.70
2019-06-26T14:43:41.494Z,3.50
2019-06-26T14:46:11.874Z,3.77
2019-06-26T14:48:42.281Z,4.28
2019-06-26T14:51:12.670Z,3.55
2019-06-26T14:53:43.112Z,3.40
2019-06-26T14:56:13.607Z,3.37
2019-06-26T14:58:44.078Z,3.70
2019-06-26T15:01:14.512Z,3.65
2019-06-26T15:03:44.941Z,3.30
2019-06-26T15:06:16.885Z,3.83
2019-06-26T15:08:47.485Z,3.40
2019-06-26T15:11:17.915Z,3.87
2019-06-26T15:13:48.400Z,3.45
2019-06-26T15:16:18.811Z,3.20
2019-06-26T15:18:49.273Z,3.47
2019-06-26T15:21:19.658Z,3.55
2019-06-26T15:23:50.105Z,3.67
2019-06-26T15:26:20.495Z,3.08
2019-06-26T15:28:50.914Z,3.20
2019-06-26T15:31:21.443Z,3.55
2019-06-26T15:33:51.948Z,3.50
2019-06-26T15:36:22.325Z,3.55
2019-06-26T15:38:52.725Z,3.62
2019-06-26T15:41:23.151Z,3.42
2019-06-26T15:43:53.619Z,3.80
2019-06-26T15:46:24.044Z,3.50
2019-06-26T15:48:54.452Z,3.77
2019-06-26T15:51:24.900Z,4.12
2019-06-26T15:53:55.292Z,3.58
2019-06-26T15:56:25.724Z,3.05
2019-06-26T15:58:56.121Z,3.50
2019-06-26T16:01:26.572Z,3.67
2019-06-26T16:03:56.997Z,3.72
2019-06-26T16:06:27.464Z,3.40
2019-06-26T16:08:57.871Z,3.72
2019-06-26T16:11:28.327Z,3.52
2019-06-26T16:13:59.596Z,3.40
2019-06-26T16:16:31.106Z,3.72
2019-06-26T16:19:06.390Z,3.35
2019-06-26T16:21:36.831Z,3.40
2019-06-26T16:24:07.288Z,3.37
2019-06-26T16:26:37.686Z,3.08
2019-06-26T16:29:08.098Z,3.45
2019-06-26T16:31:38.519Z,3.70
2019-06-26T16:34:08.956Z,3.52
2019-06-26T16:36:39.488Z,3.52
2019-06-26T16:39:10.420Z,3.08
2019-06-26T16:41:40.888Z,4.42
2019-06-26T16:44:11.314Z,4.47
2019-06-26T16:46:41.766Z,3.33
2019-06-26T16:49:12.178Z,3.52
2019-06-26T16:51:42.598Z,3.27
2019-06-26T16:54:13.000Z,2.95
2019-06-26T16:56:43.396Z,3.65
2019-06-26T16:59:13.814Z,3.37
2019-06-26T17:01:44.260Z,3.85
2019-06-26T17:04:14.663Z,3.62
2019-06-26T17:06:45.134Z,3.58
2019-06-26T17:09:15.586Z,4.20
2019-06-26T17:11:46.049Z,3.25
2019-06-26T17:14:16.966Z,3.25
2019-06-26T17:16:47.520Z,3.27
2019-06-26T17:19:18.163Z,3.30
2019-06-26T17:21:49.186Z,3.15
2019-06-26T17:24:19.683Z,3.80
2019-06-26T17:26:50.154Z,3.30
2019-06-26T17:29:20.576Z,3.50
2019-06-26T17:31:51.008Z,3.85
2019-06-26T17:34:29.945Z,3.30
2019-06-26T17:37:00.502Z,3.60
2019-06-26T17:39:30.898Z,3.47
2019-06-26T17:42:02.406Z,3.33
2019-06-26T17:44:33.098Z,3.50
2019-06-26T17:47:06.376Z,4.28
2019-06-26T17:49:37.474Z,3.50
2019-06-26T17:52:07.974Z,4.05
2019-06-26T17:54:38.598Z,4.10
2019-06-26T17:57:09.108Z,3.47
2019-06-26T17:59:39.533Z,3.72
2019-06-26T18:02:10.515Z,3.90
2019-06-26T18:04:40.998Z,8.13
2019-06-26T18:07:26.106Z,4.45
2019-06-26T18:09:56.556Z,3.70
2019-06-26T18:12:27.356Z,3.63
2019-06-26T18:14:57.881Z,3.73
2019-06-26T18:17:28.336Z,4.03
2019-06-26T18:19:58.741Z,52.37
2019-06-26T18:22:29.164Z,11.00
2019-06-26T18:24:59.771Z,4.13
2019-06-26T18:27:30.170Z,4.40
2019-06-26T18:30:02.095Z,4.10
2019-06-26T18:32:33.322Z,3.70
2019-06-26T18:35:04.386Z,4.40
2019-06-26T18:37:35.113Z,3.50
2019-06-26T18:40:06.668Z,4.93
2019-06-26T18:42:37.403Z,3.97
2019-06-26T18:45:09.411Z,4.50
2019-06-26T18:47:40.094Z,4.00
2019-06-26T18:50:10.946Z,3.53
2019-06-26T18:52:43.006Z,3.90
2019-06-26T18:55:13.793Z,4.23
2019-06-26T18:57:44.464Z,29.87
2019-06-26T19:00:18.488Z,15.17
2019-06-26T19:02:49.260Z,5.77
2019-06-26T19:05:22.407Z,4.77
2019-06-26T19:07:53.087Z,3.97
2019-06-26T19:10:23.812Z,4.43
2019-06-26T19:12:54.585Z,4.20
2019-06-26T19:15:25.244Z,4.17
2019-06-26T19:17:55.932Z,4.70
2019-06-26T19:20:26.852Z,4.13
2019-06-26T19:22:57.621Z,4.90
2019-06-26T19:25:28.302Z,5.47
2019-06-26T19:28:23.014Z,4.93
2019-06-26T19:30:52.255Z,4.97
2019-06-26T19:33:23.014Z,5.20
2019-06-26T19:35:53.488Z,5.50
2019-06-26T19:38:23.906Z,5.00
2019-06-26T19:40:54.949Z,6.03
2019-06-26T19:43:25.598Z,5.43
2019-06-26T19:45:56.274Z,26.67
2019-06-26T19:48:26.919Z,16.07
2019-06-26T19:50:57.640Z,5.40
2019-06-26T19:53:28.347Z,5.37
2019-06-26T19:55:58.988Z,5.50
2019-06-26T19:58:29.743Z,5.40
2019-06-26T20:01:00.399Z,5.33
2019-06-26T20:03:31.082Z,4.97
2019-06-26T20:06:01.754Z,5.17
2019-06-26T20:08:32.167Z,4.37
2019-06-26T20:11:02.555Z,4.80
2019-06-26T20:13:33.515Z,4.93
2019-06-26T20:16:05.237Z,5.30
2019-06-26T20:18:36.235Z,5.43
2019-06-26T20:21:06.713Z,5.87
2019-06-26T20:23:37.500Z,5.40
2019-06-26T20:26:08.146Z,6.13
2019-06-26T20:28:38.941Z,5.80
2019-06-26T20:31:12.980Z,5.67
2019-06-26T20:33:43.634Z,6.47
2019-06-26T20:36:14.345Z,6.13
2019-06-26T20:38:44.800Z,6.20
2019-06-26T20:41:15.559Z,6.13
2019-06-26T20:43:45.970Z,6.13
2019-06-26T20:46:16.396Z,5.63
2019-06-26T20:48:46.837Z,5.40
2019-06-26T20:51:20.676Z,6.00
2019-06-26T20:53:49.486Z,6.20
2019-06-26T20:56:25.647Z,6.23
2019-06-26T20:58:54.452Z,6.20
2019-06-26T21:01:24.909Z,5.93
2019-06-26T21:03:55.585Z,5.97
2019-06-26T21:06:25.993Z,5.57
2019-06-26T21:08:57.745Z,6.83
2019-06-26T21:11:28.138Z,6.77
2019-06-26T21:13:58.685Z,6.00
2019-06-26T21:16:29.149Z,7.10
2019-06-26T21:18:59.643Z,7.00
2019-06-26T21:21:30.063Z,7.23
2019-06-26T21:24:00.552Z,6.87
2019-06-26T21:26:30.958Z,6.87
2019-06-26T21:29:01.438Z,7.13
2019-06-26T21:31:31.850Z,6.63
2019-06-26T21:34:02.310Z,7.30
2019-06-26T21:36:32.709Z,7.07
2019-06-26T21:39:05.788Z,6.10
2019-06-26T21:41:35.491Z,6.40
2019-06-26T21:44:06.042Z,7.13
2019-06-26T21:46:36.428Z,6.40
2019-06-26T21:49:06.945Z,6.73
2019-06-26T21:51:37.342Z,7.00
2019-06-26T21:54:07.737Z,6.50
2019-06-26T21:56:38.233Z,6.53
2019-06-26T21:59:08.666Z,7.03
2019-06-26T22:01:39.074Z,6.57
2019-06-26T22:04:09.694Z,6.30
2019-06-26T22:06:40.463Z,7.37
2019-06-26T22:09:11.936Z,7.33
2019-06-26T22:11:42.377Z,7.07
2019-06-26T22:14:12.780Z,7.40
2019-06-26T22:16:43.218Z,7.23
2019-06-26T22:19:13.625Z,7.20
2019-06-26T22:21:44.047Z,6.43
2019-06-26T22:24:14.408Z,6.43
2019-06-26T22:26:44.820Z,6.93
2019-06-26T22:29:15.185Z,7.70
2019-06-26T22:31:45.734Z,7.67
2019-06-26T22:34:16.211Z,8.80
2019-06-26T22:36:51.890Z,7.77
2019-06-26T22:39:18.764Z,7.50
2019-06-26T22:41:49.189Z,6.67
2019-06-26T22:44:19.602Z,7.17
2019-06-26T22:46:50.014Z,8.03
2019-06-26T22:49:20.440Z,7.00
2019-06-26T22:51:50.866Z,8.03
2019-06-26T22:54:21.259Z,7.87
2019-06-26T22:56:51.644Z,7.00
2019-06-26T22:59:22.071Z,6.67
2019-06-26T23:01:53.338Z,6.90
2019-06-26T23:04:23.816Z,8.03
2019-06-26T23:06:54.238Z,8.10
2019-06-26T23:09:24.637Z,7.70
2019-06-26T23:11:55.048Z,7.20
2019-06-26T23:14:25.453Z,7.80
2019-06-26T23:16:55.908Z,6.00
2019-06-26T23:19:26.331Z,6.97
2019-06-26T23:21:56.738Z,7.00
2019-06-26T23:24:27.189Z,7.13
2019-06-26T23:26:57.571Z,7.07
2019-06-26T23:29:27.957Z,6.87
2019-06-26T23:31:58.365Z,6.63
2019-06-26T23:34:28.788Z,7.07
2019-06-26T23:36:59.188Z,7.10
2019-06-26T23:39:29.613Z,7.20
2019-06-26T23:42:00.027Z,6.77
2019-06-26T23:44:30.457Z,6.73
2019-06-26T23:47:00.866Z,6.53
2019-06-26T23:49:31.274Z,7.37
2019-06-26T23:52:01.759Z,7.17
2019-06-26T23:54:32.157Z,6.67
2019-06-26T23:57:02.625Z,6.40
2019-06-26T23:59:33.011Z,6.43
